createdAt,value
2018-05-02T00:01:45.605Z,100231.45
2018-05-02T00:04:16.315Z,100242.25
2018-05-02T00:06:47.151Z,100244.50
2018-05-02T00:09:18.154Z,100243.23
2018-05-02T00:11:49.138Z,100259.14
2018-05-02T00:14:19.752Z,100259.66
2018-05-02T00:16:50.378Z,100264.41
2018-05-02T00:19:21.266Z,100259.47
2018-05-02T00:21:52.199Z,100250.09
2018-05-02T00:24:23.238Z,100250.13
2018-05-02T00:26:54.071Z,100255.14
2018-05-02T00:29:25.180Z,100257.08
2018-05-02T00:31:55.817Z,100250.34
2018-05-02T00:34:26.531Z,100252.42
2018-05-02T00:36:57.182Z,100248.23
2018-05-02T00:39:28.236Z,100254.55
2018-05-02T00:41:59.074Z,100245.22
2018-05-02T00:44:30.214Z,100242.17
2018-05-02T00:47:01.166Z,100249.84
2018-05-02T00:49:31.153Z,100245.29
2018-05-02T00:52:01.745Z,100245.91
2018-05-02T00:54:32.735Z,100254.98
2018-05-02T00:57:03.722Z,100253.24
2018-05-02T00:59:34.706Z,100247.60
2018-05-02T01:02:05.701Z,100252.70
2018-05-02T01:04:36.673Z,100251.19
2018-05-02T01:07:07.586Z,100256.42
2018-05-02T01:09:38.855Z,100260.17
2018-05-02T01:12:09.643Z,100256.66
2018-05-02T01:14:40.629Z,100259.50
2018-05-02T01:17:11.558Z,100259.61
2018-05-02T01:19:43.537Z,100263.41
2018-05-02T01:22:14.213Z,100265.06
2018-05-02T01:24:45.194Z,100270.91
2018-05-02T01:27:16.150Z,100268.62
2018-05-02T01:29:47.154Z,100277.20
2018-05-02T01:32:18.262Z,100283.35
2018-05-02T01:34:49.145Z,100272.11
2018-05-02T01:37:20.134Z,100275.92
2018-05-02T01:39:51.179Z,100274.44
2018-05-02T01:42:22.105Z,100279.91
2018-05-02T01:44:53.594Z,100279.84
2018-05-02T01:47:24.212Z,100282.51
2018-05-02T01:49:55.203Z,100278.59
2018-05-02T01:52:26.070Z,100285.09
2018-05-02T01:54:57.182Z,100278.02
2018-05-02T01:57:28.066Z,100279.77
2018-05-02T01:59:59.498Z,100277.26
2018-05-02T02:02:30.169Z,100269.78
2018-05-02T02:05:01.158Z,100276.59
2018-05-02T02:07:32.061Z,100278.21
2018-05-02T02:10:03.148Z,100278.88
2018-05-02T02:12:34.126Z,100276.05
2018-05-02T02:15:04.646Z,100276.29
2018-05-02T02:17:35.342Z,100288.47
2018-05-02T02:20:06.605Z,100289.47
2018-05-02T02:22:37.283Z,100285.23
2018-05-02T02:25:08.181Z,100284.06
2018-05-02T02:27:38.671Z,100289.15
2018-05-02T02:30:09.354Z,100290.97
2018-05-02T02:32:39.691Z,100288.64
2018-05-02T02:35:10.511Z,100297.30
2018-05-02T02:37:41.139Z,100297.97
2018-05-02T02:40:12.529Z,100300.97
2018-05-02T02:42:42.394Z,100301.89
2018-05-02T02:45:13.531Z,100305.89
2018-05-02T02:47:44.146Z,100311.31
2018-05-02T02:50:15.450Z,100307.31
2018-05-02T02:52:45.471Z,100310.16
2018-05-02T02:55:16.060Z,100308.17
2018-05-02T02:57:47.094Z,100307.50
2018-05-02T03:00:18.218Z,100301.58
2018-05-02T03:02:49.087Z,100300.58
2018-05-02T03:05:20.173Z,100306.84
2018-05-02T03:07:51.187Z,100303.52
2018-05-02T03:10:22.186Z,100296.10
2018-05-02T03:12:53.152Z,100290.92
2018-05-02T03:15:24.162Z,100291.02
2018-05-02T03:17:55.559Z,100290.84
2018-05-02T03:20:25.809Z,100291.56
2018-05-02T03:22:56.449Z,100290.91
2018-05-02T03:25:27.470Z,100286.67
2018-05-02T03:27:58.187Z,100294.17
2018-05-02T03:30:29.183Z,100292.48
2018-05-02T03:33:00.197Z,100290.42
2018-05-02T03:35:31.167Z,100293.66
2018-05-02T03:38:02.005Z,100295.23
2018-05-02T03:40:33.375Z,100301.40
2018-05-02T03:43:04.145Z,100296.56
2018-05-02T03:45:35.118Z,100306.45
2018-05-02T03:48:06.228Z,100302.64
2018-05-02T03:50:37.258Z,100303.22
2018-05-02T03:53:08.121Z,100308.20
2018-05-02T03:55:39.239Z,100312.63
2018-05-02T03:58:10.178Z,100315.28
2018-05-02T04:00:51.490Z,100320.70
2018-05-02T04:03:31.333Z,100320.36
2018-05-02T04:06:12.999Z,100318.61
2018-05-02T04:08:41.841Z,100318.19
2018-05-02T04:11:10.890Z,100319.18
2018-05-02T04:13:39.709Z,100317.09
2018-05-02T04:16:08.752Z,100319.36
2018-05-02T04:18:37.781Z,100325.08
2018-05-02T04:21:07.210Z,100323.35
2018-05-02T04:23:36.159Z,100334.81
2018-05-02T04:26:05.578Z,100339.23
2018-05-02T04:28:34.707Z,100334.81
2018-05-02T04:31:04.194Z,100343.70
2018-05-02T04:33:33.215Z,100351.69
2018-05-02T04:36:02.190Z,100359.86
2018-05-02T04:38:31.153Z,100355.02
2018-05-02T04:41:00.637Z,100354.95
2018-05-02T04:43:29.765Z,100359.53
2018-05-02T04:45:58.688Z,100359.77
2018-05-02T04:48:27.607Z,100360.02
2018-05-02T04:50:57.793Z,100361.63
2018-05-02T04:53:29.081Z,100362.29
2018-05-02T04:55:59.642Z,100352.37
2018-05-02T04:58:30.351Z,100350.55
2018-05-02T05:01:01.103Z,100362.20
2018-05-02T05:03:32.178Z,100357.78
2018-05-02T05:06:03.285Z,100364.72
2018-05-02T05:08:34.422Z,100352.83
2018-05-02T05:11:05.189Z,100357.21
2018-05-02T05:13:36.205Z,100362.75
2018-05-02T05:16:07.325Z,100356.34
2018-05-02T05:18:38.141Z,100356.58
2018-05-02T05:21:09.754Z,100357.48
2018-05-02T05:23:40.443Z,100365.91
2018-05-02T05:26:10.827Z,100357.09
2018-05-02T05:28:41.547Z,100357.58
2018-05-02T05:31:11.354Z,100354.10
2018-05-02T05:33:42.294Z,100354.41
2018-05-02T05:36:12.452Z,100351.12
2018-05-02T05:38:44.218Z,100346.75
2018-05-02T05:41:15.210Z,100354.22
2018-05-02T05:43:46.176Z,100356.55
2018-05-02T05:46:16.785Z,100355.25
2018-05-02T05:48:47.421Z,100360.09
2018-05-02T05:51:18.105Z,100351.34
2018-05-02T05:53:48.626Z,100359.09
2018-05-02T05:56:19.555Z,100352.58
2018-05-02T05:58:50.185Z,100357.16
2018-05-02T06:01:21.181Z,100350.34
2018-05-02T06:03:51.665Z,100347.84
2018-05-02T06:06:22.344Z,100349.96
2018-05-02T06:08:53.133Z,100342.89
2018-05-02T06:11:23.974Z,100344.22
2018-05-02T06:13:55.402Z,100338.84
2018-05-02T06:16:26.234Z,100345.50
2018-05-02T06:18:57.094Z,100336.88
2018-05-02T06:21:28.210Z,100343.38
2018-05-02T06:23:59.158Z,100343.30
2018-05-02T06:26:30.158Z,100346.53
2018-05-02T06:29:01.260Z,100347.20
2018-05-02T06:31:31.867Z,100356.27
2018-05-02T06:34:02.525Z,100350.25
2018-05-02T06:36:33.477Z,100345.72
2018-05-02T06:39:03.472Z,100342.14
2018-05-02T06:41:34.154Z,100340.64
2018-05-02T06:44:05.154Z,100345.55
2018-05-02T06:46:36.203Z,100342.88
2018-05-02T06:49:07.242Z,100345.47
2018-05-02T06:51:38.149Z,100344.94
2018-05-02T06:54:09.863Z,100348.42
2018-05-02T06:56:40.513Z,100350.89
2018-05-02T06:59:11.343Z,100351.14
2018-05-02T07:01:42.206Z,100362.05
2018-05-02T07:04:12.989Z,100357.98
2018-05-02T07:06:44.623Z,100351.09
2018-05-02T07:09:15.349Z,100357.17
2018-05-02T07:11:46.174Z,100364.20
2018-05-02T07:14:17.174Z,100362.39
2018-05-02T07:16:48.167Z,100354.88
2018-05-02T07:19:19.231Z,100351.88
2018-05-02T07:21:49.731Z,100358.72
2018-05-02T07:24:20.427Z,100346.72
2018-05-02T07:26:51.141Z,100340.09
2018-05-02T07:29:22.266Z,100341.19
2018-05-02T07:31:52.934Z,100341.95
2018-05-02T07:34:23.958Z,100350.85
2018-05-02T07:36:54.539Z,100346.95
2018-05-02T07:39:25.531Z,100338.77
2018-05-02T07:41:56.247Z,100340.30
2018-05-02T07:44:26.975Z,100336.42
2018-05-02T07:46:58.428Z,100339.45
2018-05-02T07:49:28.925Z,100335.64
2018-05-02T07:52:00.415Z,100330.59
2018-05-02T07:54:30.598Z,100328.79
2018-05-02T07:57:00.694Z,100330.72
2018-05-02T07:59:31.884Z,100329.38
2018-05-02T08:02:02.500Z,100328.70
2018-05-02T08:04:33.302Z,100336.00
2018-05-02T08:07:04.139Z,100333.42
2018-05-02T08:09:35.243Z,100343.78
2018-05-02T08:12:06.125Z,100339.16
2018-05-02T08:14:37.248Z,100337.36
2018-05-02T08:17:07.777Z,100337.31
2018-05-02T08:19:38.501Z,100340.39
2018-05-02T08:22:08.888Z,100332.31
2018-05-02T08:24:40.509Z,100335.41
2018-05-02T08:27:11.471Z,100336.29
2018-05-02T08:29:41.535Z,100340.75
2018-05-02T08:32:12.224Z,100338.41
2018-05-02T08:34:43.223Z,100334.50
2018-05-02T08:37:14.201Z,100323.58
2018-05-02T08:39:45.230Z,100326.41
2018-05-02T08:42:16.200Z,100322.34
2018-05-02T08:44:46.774Z,100327.09
2018-05-02T08:47:17.445Z,100322.39
2018-05-02T08:49:48.540Z,100319.88
2018-05-02T08:52:19.191Z,100315.56
2018-05-02T08:54:50.228Z,100309.20
2018-05-02T08:57:21.160Z,100308.49
2018-05-02T08:59:52.224Z,100310.92
2018-05-02T09:02:23.102Z,100306.27
2018-05-02T09:04:54.186Z,100307.41
2018-05-02T09:07:25.200Z,100306.91
2018-05-02T09:09:56.197Z,100303.71
2018-05-02T09:12:27.173Z,100294.34
2018-05-02T09:14:58.485Z,100292.02
2018-05-02T09:17:29.159Z,100287.92
2018-05-02T09:20:00.301Z,100280.41
2018-05-02T09:22:30.781Z,100264.03
2018-05-02T09:25:01.534Z,100265.73
2018-05-02T09:27:32.566Z,100259.53
2018-05-02T09:30:03.299Z,100258.52
2018-05-02T09:32:34.133Z,100266.53
2018-05-02T09:35:05.243Z,100264.77
2018-05-02T09:37:36.182Z,100257.98
2018-05-02T09:40:07.474Z,100253.48
2018-05-02T09:42:38.141Z,100261.30
2018-05-02T09:45:09.282Z,100255.85
2018-05-02T09:47:40.178Z,100257.14
2018-05-02T09:50:11.281Z,100246.30
2018-05-02T09:52:42.154Z,100243.18
2018-05-02T09:55:13.549Z,100246.27
2018-05-02T09:57:43.533Z,100248.45
2018-05-02T10:00:14.312Z,100248.92
2018-05-02T10:02:45.200Z,100251.19
2018-05-02T10:05:15.758Z,100245.37
2018-05-02T10:07:46.448Z,100239.31
2018-05-02T10:10:16.864Z,100240.81
2018-05-02T10:12:47.504Z,100231.59
2018-05-02T10:15:18.483Z,100228.43
2018-05-02T10:17:49.222Z,100231.70
2018-05-02T10:20:20.213Z,100229.06
2018-05-02T10:22:51.189Z,100221.60
2018-05-02T10:25:22.259Z,100219.87
2018-05-02T10:27:53.321Z,100214.12
2018-05-02T10:30:23.905Z,100204.85
2018-05-02T10:32:54.365Z,100201.88
2018-05-02T10:35:25.259Z,100199.47
2018-05-02T10:37:56.128Z,100200.83
2018-05-02T10:40:27.299Z,100199.32
2018-05-02T10:42:57.786Z,100183.77
2018-05-02T10:45:28.527Z,100181.50
2018-05-02T10:47:59.245Z,100178.97
2018-05-02T10:50:29.894Z,100176.40
2018-05-02T10:53:00.536Z,100168.02
2018-05-02T10:55:31.302Z,100166.91
2018-05-02T10:58:02.139Z,100167.75
2018-05-02T11:00:33.239Z,100166.01
2018-05-02T11:03:04.143Z,100162.70
2018-05-02T11:05:35.258Z,100162.79
2018-05-02T11:08:06.282Z,100150.10
2018-05-02T11:10:37.545Z,100146.38
2018-05-02T11:13:08.914Z,100147.50
2018-05-02T11:15:39.562Z,100142.70
2018-05-02T11:18:10.240Z,100145.28
2018-05-02T11:20:41.223Z,100133.48
2018-05-02T11:23:12.192Z,100133.25
2018-05-02T11:25:43.284Z,100127.83
2018-05-02T11:28:14.494Z,100130.94
2018-05-02T11:30:45.269Z,100130.44
2018-05-02T11:33:16.154Z,100132.42
2018-05-02T11:35:47.272Z,100128.17
2018-05-02T11:38:18.183Z,100120.38
2018-05-02T11:40:49.234Z,100118.41
2018-05-02T11:43:20.244Z,100115.72
2018-05-02T11:45:51.272Z,100111.39
2018-05-02T11:48:21.712Z,100109.91
2018-05-02T11:50:52.485Z,100098.89
2018-05-02T11:53:23.177Z,100095.97
2018-05-02T11:55:54.362Z,100086.12
2018-05-02T11:58:25.186Z,100084.53
2018-05-02T12:00:56.262Z,100085.99
2018-05-02T12:03:26.909Z,100086.42
2018-05-02T12:05:57.810Z,100083.24
2018-05-02T12:08:28.483Z,100073.62
2018-05-02T12:10:59.262Z,100073.41
2018-05-02T12:13:30.210Z,100067.41
2018-05-02T12:16:01.357Z,100066.30
2018-05-02T12:18:31.854Z,100056.52
2018-05-02T12:21:02.977Z,100042.14
2018-05-02T12:23:33.683Z,100040.52
2018-05-02T12:26:04.682Z,100039.44
2018-05-02T12:28:35.394Z,100039.31
2018-05-02T12:31:05.929Z,100035.55
2018-05-02T12:33:37.247Z,99976.80
2018-05-02T12:36:07.984Z,100025.58
2018-05-02T12:38:38.760Z,100015.91
2018-05-02T12:41:09.518Z,100004.09
2018-05-02T12:43:40.254Z,100007.99
2018-05-02T12:46:11.273Z,100002.17
2018-05-02T12:48:42.251Z,99995.64
2018-05-02T12:51:13.510Z,99998.71
2018-05-02T12:53:44.210Z,99994.12
2018-05-02T12:56:14.958Z,99995.70
2018-05-02T12:58:45.754Z,99982.81
2018-05-02T13:01:16.737Z,99979.98
2018-05-02T13:03:47.464Z,99972.09
2018-05-02T13:06:18.511Z,99964.00
2018-05-02T13:08:49.243Z,99966.49
2018-05-02T13:11:20.173Z,99958.33
2018-05-02T13:13:51.164Z,99957.98
2018-05-02T13:16:22.178Z,99955.98
2018-05-02T13:18:52.749Z,99954.13
2018-05-02T13:21:23.743Z,99957.52
2018-05-02T13:23:54.422Z,99951.11
2018-05-02T13:26:25.283Z,99944.84
2018-05-02T13:28:56.534Z,99935.39
2018-05-02T13:31:28.315Z,99931.22
2018-05-02T13:33:57.725Z,99922.41
2018-05-02T13:36:28.467Z,99917.83
2018-05-02T13:38:59.212Z,99908.09
2018-05-02T13:41:30.259Z,99909.23
2018-05-02T13:44:00.746Z,99907.05
2018-05-02T13:46:32.588Z,99902.24
2018-05-02T13:49:05.584Z,99895.73
2018-05-02T13:51:34.614Z,99888.70
2018-05-02T13:54:05.308Z,99884.09
2018-05-02T13:56:36.241Z,99880.08
2018-05-02T13:59:06.780Z,99874.89
2018-05-02T14:01:37.540Z,99867.47
2018-05-02T14:04:08.305Z,99868.75
2018-05-02T14:06:39.762Z,99865.72
2018-05-02T14:09:10.557Z,99856.55
2018-05-02T14:11:40.504Z,99859.37
2018-05-02T14:14:11.494Z,99854.80
2018-05-02T14:16:42.457Z,99858.79
2018-05-02T14:19:13.230Z,99852.62
2018-05-02T14:21:44.211Z,99851.45
2018-05-02T14:24:15.258Z,99846.58
2018-05-02T14:26:46.697Z,99832.66
2018-05-02T14:29:17.463Z,99829.70
2018-05-02T14:31:49.001Z,99827.52
2018-05-02T14:34:19.730Z,99822.42
2018-05-02T14:36:50.447Z,99820.16
2018-05-02T14:39:21.270Z,99823.70
2018-05-02T14:41:52.158Z,99826.27
2018-05-02T14:44:23.022Z,99821.83
2018-05-02T14:46:54.164Z,99823.65
2018-05-02T14:49:25.467Z,99819.55
2018-05-02T14:51:56.604Z,99811.03
2018-05-02T14:54:27.367Z,99819.41
2018-05-02T14:56:58.284Z,99807.32
2018-05-02T14:59:28.770Z,99804.84
2018-05-02T15:01:59.472Z,99798.34
2018-05-02T15:04:31.080Z,99791.70
2018-05-02T15:07:02.715Z,99794.09
2018-05-02T15:09:32.793Z,99786.84
2018-05-02T15:12:04.549Z,99785.21
2018-05-02T15:14:34.801Z,99781.30
2018-05-02T15:17:04.894Z,99779.87
2018-05-02T15:19:36.580Z,99774.98
2018-05-02T15:22:06.560Z,99771.97
2018-05-02T15:24:37.935Z,99769.49
2018-05-02T15:27:08.578Z,99767.48
2018-05-02T15:29:39.330Z,99773.88
2018-05-02T15:32:10.998Z,99769.61
2018-05-02T15:34:41.725Z,99767.33
2018-05-02T15:37:12.425Z,99764.21
2018-05-02T15:39:43.271Z,99762.59
2018-05-02T15:42:14.195Z,99755.11
2018-05-02T15:44:44.811Z,99754.28
2018-05-02T15:47:15.466Z,99755.50
2018-05-02T15:49:46.289Z,99753.53
2018-05-02T15:52:17.663Z,99752.03
2018-05-02T15:54:48.447Z,99756.34
2018-05-02T15:57:19.962Z,99759.09
2018-05-02T15:59:50.746Z,99751.84
2018-05-02T16:02:21.766Z,99748.02
2018-05-02T16:04:52.534Z,99751.53
2018-05-02T16:07:23.346Z,99756.16
2018-05-02T16:09:54.433Z,99748.25
2018-05-02T16:12:25.723Z,99747.14
2018-05-02T16:14:56.502Z,99749.05
2018-05-02T16:17:27.391Z,99744.05
2018-05-02T16:19:58.654Z,99741.66
2018-05-02T16:22:29.770Z,99738.81
2018-05-02T16:25:00.586Z,99738.56
2018-05-02T16:27:31.482Z,99738.50
2018-05-02T16:30:02.907Z,99732.08
2018-05-02T16:32:33.752Z,99740.09
2018-05-02T16:35:03.825Z,99742.85
2018-05-02T16:37:34.655Z,99735.94
2018-05-02T16:40:05.433Z,99735.91
2018-05-02T16:42:37.428Z,99733.65
2018-05-02T16:45:08.061Z,99734.28
2018-05-02T16:47:40.024Z,99732.73
2018-05-02T16:50:09.779Z,99732.86
2018-05-02T16:52:40.829Z,99731.75
2018-05-02T16:55:10.825Z,99735.00
2018-05-02T16:57:42.426Z,99724.55
2018-05-02T17:00:12.823Z,99730.16
2018-05-02T17:02:43.579Z,99729.41
2018-05-02T17:05:14.773Z,99729.45
2018-05-02T17:07:45.534Z,99724.34
2018-05-02T17:10:16.227Z,99726.63
2018-05-02T17:12:47.321Z,99727.60
2018-05-02T17:15:18.661Z,99729.46
2018-05-02T17:17:49.454Z,99726.53
2018-05-02T17:20:20.250Z,99730.62
2018-05-02T17:22:51.283Z,99734.52
2018-05-02T17:25:22.194Z,99729.47
2018-05-02T17:27:53.307Z,99727.97
2018-05-02T17:30:24.188Z,99725.95
2018-05-02T17:32:54.872Z,99726.80
2018-05-02T17:35:25.706Z,99730.02
2018-05-02T17:37:56.543Z,99724.73
2018-05-02T17:40:27.497Z,99718.25
2018-05-02T17:42:58.339Z,99727.99
2018-05-02T17:45:29.154Z,99725.59
2018-05-02T17:48:00.352Z,99727.63
2018-05-02T17:50:31.232Z,99734.31
2018-05-02T17:53:02.713Z,99731.53
2018-05-02T17:55:33.455Z,99730.80
2018-05-02T17:58:04.368Z,99725.38
2018-05-02T18:00:35.304Z,99724.78
2018-05-02T18:03:06.273Z,99718.50
2018-05-02T18:05:36.924Z,99722.09
2018-05-02T18:08:07.782Z,99714.72
2018-05-02T18:10:38.606Z,99720.48
2018-05-02T18:13:09.393Z,99718.37
2018-05-02T18:15:40.195Z,99722.78
2018-05-02T18:18:11.265Z,99716.38
2018-05-02T18:20:47.699Z,99716.61
2018-05-02T18:23:16.934Z,99717.12
2018-05-02T18:25:46.338Z,99715.93
2018-05-02T18:28:15.758Z,99719.21
2018-05-02T18:30:46.788Z,99722.62
2018-05-02T18:33:17.520Z,99722.78
2018-05-02T18:35:48.346Z,99721.69
2018-05-02T18:38:18.975Z,99718.47
2018-05-02T18:40:49.574Z,99717.89
2018-05-02T18:43:20.444Z,99722.30
2018-05-02T18:45:51.564Z,99717.73
2018-05-02T18:48:22.310Z,99721.03
2018-05-02T18:50:53.183Z,99715.53
2018-05-02T18:53:24.242Z,99720.13
2018-05-02T18:55:55.331Z,99724.45
2018-05-02T18:58:26.363Z,99723.75
2018-05-02T19:00:57.600Z,99725.99
2018-05-02T19:03:28.389Z,99725.41
2018-05-02T19:05:59.022Z,99727.71
2018-05-02T19:08:29.672Z,99735.28
2018-05-02T19:11:00.850Z,99735.83
2018-05-02T19:13:31.443Z,99736.18
2018-05-02T19:16:02.399Z,99734.75
2018-05-02T19:18:38.055Z,99740.83
2018-05-02T19:21:07.456Z,99740.47
2018-05-02T19:23:36.877Z,99744.36
2018-05-02T19:26:11.677Z,99748.06
2018-05-02T19:28:40.715Z,99737.56
2018-05-02T19:31:15.527Z,99740.59
2018-05-02T19:33:49.911Z,99729.25
2018-05-02T19:36:19.542Z,99726.94
2018-05-02T19:38:48.554Z,99732.42
2018-05-02T19:41:22.958Z,99733.81
2018-05-02T19:43:57.240Z,99733.69
2018-05-02T19:46:26.682Z,99732.16
2018-05-02T19:48:55.955Z,99733.42
2018-05-02T19:51:30.421Z,99729.72
2018-05-02T19:53:59.658Z,99729.93
2018-05-02T19:56:28.806Z,99723.53
2018-05-02T19:58:57.826Z,99729.42
2018-05-02T20:04:31.142Z,99726.44
2018-05-02T20:06:59.978Z,99714.78
2018-05-02T20:09:34.322Z,99724.04
2018-05-02T20:12:08.688Z,99721.56
2018-05-02T20:14:38.450Z,99719.11
2018-05-02T20:17:07.698Z,99721.25
2018-05-02T20:19:36.813Z,99717.38
2018-05-02T20:22:12.033Z,99718.81
2018-05-02T20:24:45.307Z,99714.68
2018-05-02T20:27:14.617Z,99712.95
2018-05-02T20:29:44.133Z,99705.05
2018-05-02T20:32:13.197Z,99699.61
2018-05-02T20:34:42.217Z,99701.25
2018-05-02T20:37:11.163Z,99699.73
2018-05-02T20:39:41.145Z,99689.37
2018-05-02T20:42:10.151Z,99689.67
2018-05-02T20:44:39.128Z,99688.03
2018-05-02T20:47:08.092Z,99680.49
2018-05-02T20:49:37.555Z,99687.39
2018-05-02T20:52:06.813Z,99682.34
2018-05-02T20:54:35.775Z,99682.19
2018-05-02T20:57:04.999Z,99680.91
2018-05-02T20:59:33.963Z,99674.52
2018-05-02T21:02:02.952Z,99673.63
2018-05-02T21:04:31.975Z,99670.81
2018-05-02T21:07:00.969Z,99669.38
2018-05-02T21:09:29.947Z,99672.70
2018-05-02T21:11:58.989Z,99663.34
2018-05-02T21:14:28.082Z,99660.57
2018-05-02T21:16:57.233Z,99653.77
2018-05-02T21:19:26.580Z,99648.48
2018-05-02T21:21:55.524Z,99652.92
2018-05-02T21:24:24.491Z,99653.59
2018-05-02T21:26:53.534Z,99659.67
2018-05-02T21:29:22.511Z,99656.39
2018-05-02T21:31:51.766Z,99655.52
2018-05-02T21:34:20.792Z,99651.91
2018-05-02T21:36:49.760Z,99648.41
2018-05-02T21:39:19.801Z,99645.94
2018-05-02T21:41:49.826Z,99644.70
2018-05-02T21:44:19.768Z,99640.80
2018-05-02T21:46:50.564Z,99649.03
2018-05-02T21:49:21.262Z,99651.49
2018-05-02T21:51:52.314Z,99644.03
2018-05-02T21:54:23.364Z,99640.80
2018-05-02T21:56:54.672Z,99639.05
2018-05-02T21:59:25.782Z,99635.86
2018-05-02T22:01:56.494Z,99634.96
2018-05-02T22:04:27.286Z,99632.36
2018-05-02T22:06:58.232Z,99642.87
2018-05-02T22:09:29.289Z,99640.95
2018-05-02T22:12:00.218Z,99646.98
2018-05-02T22:14:31.633Z,99645.45
2018-05-02T22:17:02.329Z,99641.09
2018-05-02T22:19:33.288Z,99636.06
2018-05-02T22:22:04.193Z,99632.17
2018-05-02T22:24:35.284Z,99634.59
2018-05-02T22:27:06.160Z,99633.09
2018-05-02T22:29:37.269Z,99626.81
2018-05-02T22:32:08.728Z,99622.33
2018-05-02T22:34:39.552Z,99617.09
2018-05-02T22:37:10.266Z,99615.23
2018-05-02T22:39:41.528Z,99603.66
2018-05-02T22:42:12.222Z,99606.97
2018-05-02T22:44:43.219Z,99601.69
2018-05-02T22:47:14.229Z,99597.05
2018-05-02T22:49:45.568Z,99593.78
2018-05-02T22:52:16.320Z,99592.34
2018-05-02T22:54:46.875Z,99597.67
2018-05-02T22:57:17.593Z,99600.78
2018-05-02T22:59:48.736Z,99599.97
2018-05-02T23:02:18.706Z,99599.45
2018-05-02T23:04:49.498Z,99593.71
2018-05-02T23:07:20.230Z,99594.77
2018-05-02T23:09:51.343Z,99595.63
2018-05-02T23:12:22.169Z,99587.08
2018-05-02T23:14:53.294Z,99583.98
2018-05-02T23:17:24.146Z,99586.67
2018-05-02T23:19:55.287Z,99584.97
2018-05-02T23:22:26.273Z,99588.20
2018-05-02T23:24:57.317Z,99581.86
2018-05-02T23:27:28.154Z,99582.41
2018-05-02T23:29:59.254Z,99587.72
2018-05-02T23:32:29.824Z,99579.56
2018-05-02T23:35:00.615Z,99572.47
2018-05-02T23:37:31.331Z,99573.81
2018-05-02T23:40:02.319Z,99574.92
2018-05-02T23:42:33.184Z,99575.76
2018-05-02T23:45:03.995Z,99562.25
2018-05-02T23:47:35.454Z,99570.30
2018-05-02T23:50:06.302Z,99569.57
2018-05-02T23:52:36.825Z,99570.00
2018-05-02T23:55:07.632Z,99574.98
2018-05-02T23:57:38.363Z,99575.00
